createdAt,value
2018-12-13T00:00:47.616Z,2.10
2018-12-13T00:03:13.726Z,2.20
2018-12-13T00:05:39.982Z,2.10
2018-12-13T00:08:06.322Z,2.00
2018-12-13T00:10:32.635Z,1.90
2018-12-13T00:12:59.739Z,2.00
2018-12-13T00:15:27.986Z,1.90
2018-12-13T00:17:54.315Z,1.90
2018-12-13T00:20:21.127Z,1.90
2018-12-13T00:22:54.090Z,2.00
2018-12-13T00:25:20.308Z,2.00
2018-12-13T00:27:46.529Z,2.10
2018-12-13T00:30:13.555Z,2.10
2018-12-13T00:32:39.770Z,2.10
2018-12-13T00:37:49.436Z,2.10
2018-12-13T00:40:15.634Z,2.10
2018-12-13T00:42:41.795Z,2.10
2018-12-13T00:45:15.089Z,2.10
2018-12-13T00:47:41.211Z,2.20
2018-12-13T00:50:07.846Z,2.10
2018-12-13T00:52:33.987Z,2.20
2018-12-13T00:55:00.206Z,2.20
2018-12-13T00:57:26.326Z,2.10
2018-12-13T00:59:53.019Z,2.00
2018-12-13T01:02:19.242Z,2.00
2018-12-13T01:04:45.549Z,2.00
2018-12-13T01:07:12.851Z,1.90
2018-12-13T01:09:39.147Z,1.80
2018-12-13T01:12:05.367Z,1.50
2018-12-13T01:14:31.573Z,1.40
2018-12-13T01:16:57.882Z,1.30
2018-12-13T01:19:24.173Z,1.20
2018-12-13T01:21:50.293Z,1.20
2018-12-13T01:24:16.374Z,1.30
2018-12-13T01:26:49.578Z,1.30
2018-12-13T01:29:15.676Z,1.30
2018-12-13T01:31:41.953Z,1.20
2018-12-13T01:34:08.073Z,1.20
2018-12-13T01:36:34.331Z,1.10
2018-12-13T01:39:00.460Z,1.00
2018-12-13T01:41:26.573Z,0.90
2018-12-13T01:43:52.872Z,0.90
2018-12-13T01:46:19.968Z,0.70
2018-12-13T01:48:46.081Z,0.60
2018-12-13T01:51:12.213Z,0.30
2018-12-13T01:53:38.317Z,0.30
2018-12-13T01:56:04.498Z,0.20
2018-12-13T01:58:30.639Z,0.20
2018-12-13T02:00:56.801Z,0.20
2018-12-13T02:03:23.396Z,0.20
2018-12-13T02:05:49.513Z,0.30
2018-12-13T02:08:15.689Z,0.30
2018-12-13T02:10:42.088Z,0.20
2018-12-13T02:13:08.322Z,0.20
2018-12-13T02:15:34.478Z,0.20
2018-12-13T02:18:07.708Z,0.20
2018-12-13T02:20:33.842Z,0.20
2018-12-13T02:23:00.109Z,0.20
2018-12-13T02:25:26.342Z,0.20
2018-12-13T02:27:52.481Z,0.20
2018-12-13T02:30:20.722Z,0.20
2018-12-13T02:32:47.192Z,0.20
2018-12-13T02:35:13.426Z,0.10
2018-12-13T02:37:39.543Z,0.10
2018-12-13T02:40:05.955Z,0.00
2018-12-13T02:42:32.102Z,0.00
2018-12-13T02:44:58.242Z,0.00
2018-12-13T02:47:25.315Z,0.00
2018-12-13T02:49:51.556Z,0.00
2018-12-13T02:52:17.780Z,0.00
2018-12-13T02:54:43.962Z,0.00
2018-12-13T02:57:11.096Z,0.00
2018-12-13T02:59:37.251Z,-0.10
2018-12-13T03:02:03.580Z,-0.10
2018-12-13T03:04:29.815Z,-0.10
2018-12-13T03:06:55.981Z,-0.10
2018-12-13T03:09:22.236Z,0.00
2018-12-13T03:11:48.416Z,0.10
2018-12-13T03:14:14.564Z,0.10
2018-12-13T03:16:40.732Z,0.20
2018-12-13T03:19:06.892Z,0.20
2018-12-13T03:21:33.234Z,0.20
2018-12-13T03:23:59.570Z,0.20
2018-12-13T03:26:25.815Z,0.20
2018-12-13T03:28:51.985Z,0.30
2018-12-13T03:33:57.545Z,0.30
2018-12-13T03:36:23.755Z,0.50
2018-12-13T03:38:49.860Z,0.60
2018-12-13T03:41:16.201Z,0.60
2018-12-13T03:43:49.281Z,0.70
2018-12-13T03:46:15.652Z,0.60
2018-12-13T03:48:41.815Z,0.70
2018-12-13T03:51:08.116Z,0.70
2018-12-13T03:53:34.333Z,0.70
2018-12-13T03:56:00.528Z,0.70
2018-12-13T03:58:26.698Z,0.60
2018-12-13T04:00:53.540Z,0.70
2018-12-13T04:03:19.764Z,0.60
2018-12-13T04:05:45.865Z,0.50
2018-12-13T04:08:12.006Z,0.60
2018-12-13T04:10:38.217Z,0.60
2018-12-13T04:13:04.349Z,0.70
2018-12-13T04:15:30.761Z,0.70
2018-12-13T04:17:56.871Z,0.70
2018-12-13T04:20:23.322Z,0.70
2018-12-13T04:22:49.464Z,0.80
2018-12-13T04:25:15.588Z,0.80
2018-12-13T04:27:41.702Z,0.80
2018-12-13T04:30:08.076Z,0.90
2018-12-13T04:32:34.184Z,0.80
2018-12-13T04:35:00.306Z,0.80
2018-12-13T04:37:26.587Z,0.90
2018-12-13T04:39:52.712Z,0.90
2018-12-13T04:42:18.965Z,1.00
2018-12-13T04:44:45.309Z,1.00
2018-12-13T04:47:11.457Z,1.10
2018-12-13T04:49:37.682Z,1.20
2018-12-13T04:52:03.900Z,1.30
2018-12-13T04:54:30.009Z,1.30
2018-12-13T04:56:56.316Z,1.40
2018-12-13T04:59:22.462Z,1.50
2018-12-13T05:01:50.261Z,1.40
2018-12-13T05:04:16.412Z,1.50
2018-12-13T05:06:42.966Z,1.50
2018-12-13T05:09:09.318Z,1.50
2018-12-13T05:11:36.664Z,1.60
2018-12-13T05:14:03.008Z,1.60
2018-12-13T05:16:29.177Z,1.70
2018-12-13T05:18:55.394Z,1.70
2018-12-13T05:21:21.690Z,1.70
2018-12-13T05:23:47.897Z,1.70
2018-12-13T05:26:14.182Z,1.60
2018-12-13T05:28:40.451Z,1.70
2018-12-13T05:31:06.643Z,1.70
2018-12-13T05:33:32.724Z,1.80
2018-12-13T05:35:58.835Z,1.80
2018-12-13T05:38:25.155Z,1.70
2018-12-13T05:40:51.281Z,1.70
2018-12-13T05:43:17.382Z,1.70
2018-12-13T05:45:43.547Z,1.60
2018-12-13T05:48:09.777Z,1.70
2018-12-13T05:50:35.973Z,1.80
2018-12-13T05:53:02.082Z,1.80
2018-12-13T05:55:28.549Z,1.90
2018-12-13T05:57:54.701Z,1.90
2018-12-13T06:00:21.792Z,2.00
2018-12-13T06:02:48.549Z,2.00
2018-12-13T06:05:14.817Z,2.00
2018-12-13T06:07:41.199Z,2.00
2018-12-13T06:10:08.293Z,2.00
2018-12-13T06:12:34.561Z,2.00
2018-12-13T06:15:01.924Z,2.00
2018-12-13T06:17:30.183Z,1.90
2018-12-13T06:19:56.410Z,1.90
2018-12-13T06:22:23.060Z,1.90
2018-12-13T06:24:49.286Z,1.80
2018-12-13T06:27:15.394Z,1.80
2018-12-13T06:29:45.992Z,1.80
2018-12-13T06:32:09.869Z,1.80
2018-12-13T06:34:35.977Z,1.80
2018-12-13T06:37:02.388Z,1.80
2018-12-13T06:39:28.612Z,1.80
2018-12-13T06:41:54.857Z,1.80
2018-12-13T06:44:21.070Z,1.90
2018-12-13T06:46:47.418Z,1.90
2018-12-13T06:49:14.498Z,1.90
2018-12-13T06:51:41.644Z,1.80
2018-12-13T06:54:07.800Z,1.90
2018-12-13T06:56:34.144Z,2.00
2018-12-13T06:59:00.357Z,2.00
2018-12-13T07:01:26.592Z,2.10
2018-12-13T07:03:52.987Z,2.00
2018-12-13T07:06:19.190Z,2.00
2018-12-13T07:08:45.423Z,2.10
2018-12-13T07:11:11.784Z,2.10
2018-12-13T07:13:38.026Z,2.20
2018-12-13T07:16:04.393Z,2.10
2018-12-13T07:18:30.542Z,2.10
2018-12-13T07:20:56.791Z,1.80
2018-12-13T07:23:23.088Z,1.60
2018-12-13T07:25:49.521Z,1.50
2018-12-13T07:28:15.725Z,1.50
2018-12-13T07:30:44.621Z,1.30
2018-12-13T07:33:10.734Z,1.50
2018-12-13T07:35:36.853Z,1.70
2018-12-13T07:38:03.078Z,1.80
2018-12-13T07:40:29.256Z,1.80
2018-12-13T07:42:55.478Z,1.60
2018-12-13T07:45:22.928Z,1.80
2018-12-13T07:47:50.623Z,1.80
2018-12-13T07:50:16.878Z,2.00
2018-12-13T07:52:43.013Z,2.20
2018-12-13T07:55:09.281Z,2.20
2018-12-13T07:57:35.513Z,2.30
2018-12-13T08:00:03.892Z,2.30
2018-12-13T08:02:30.022Z,2.40
2018-12-13T08:04:56.176Z,2.30
2018-12-13T08:07:22.391Z,2.10
2018-12-13T08:09:49.448Z,2.20
2018-12-13T08:12:15.698Z,2.40
2018-12-13T08:14:41.913Z,2.50
2018-12-13T08:17:08.149Z,2.40
2018-12-13T08:19:34.390Z,2.50
2018-12-13T08:22:00.697Z,2.50
2018-12-13T08:24:27.020Z,2.60
2018-12-13T08:26:53.257Z,2.60
2018-12-13T08:29:19.437Z,2.70
2018-12-13T08:31:45.680Z,2.70
2018-12-13T08:34:11.831Z,2.70
2018-12-13T08:36:38.062Z,2.70
2018-12-13T08:39:06.603Z,2.70
2018-12-13T08:41:33.006Z,2.70
2018-12-13T08:43:59.320Z,2.70
2018-12-13T08:46:27.324Z,2.90
2018-12-13T08:48:54.139Z,2.90
2018-12-13T08:51:20.339Z,2.80
2018-12-13T08:53:46.440Z,2.80
2018-12-13T08:56:12.605Z,2.80
2018-12-13T08:58:38.826Z,2.70
2018-12-13T09:01:05.096Z,2.80
2018-12-13T09:03:31.350Z,2.80
2018-12-13T09:05:57.548Z,2.80
2018-12-13T09:08:23.739Z,2.80
2018-12-13T09:10:56.822Z,2.80
2018-12-13T09:13:22.930Z,2.80
2018-12-13T09:15:49.155Z,2.80
2018-12-13T09:18:15.349Z,2.70
2018-12-13T09:20:42.062Z,2.80
2018-12-13T09:23:08.325Z,2.90
2018-12-13T09:25:34.597Z,2.80
2018-12-13T09:28:00.757Z,2.70
2018-12-13T09:30:27.053Z,2.70
2018-12-13T09:32:53.270Z,2.90
2018-12-13T09:35:19.584Z,3.00
2018-12-13T09:37:47.623Z,3.00
2018-12-13T09:40:14.131Z,2.90
2018-12-13T09:42:40.238Z,3.10
2018-12-13T09:45:07.900Z,3.10
2018-12-13T09:47:34.221Z,3.10
2018-12-13T09:50:00.387Z,3.00
2018-12-13T09:52:26.510Z,3.00
2018-12-13T09:54:52.739Z,3.10
2018-12-13T09:57:19.060Z,3.10
2018-12-13T09:59:45.269Z,3.10
2018-12-13T10:02:11.423Z,3.20
2018-12-13T10:04:37.537Z,2.70
2018-12-13T10:07:03.856Z,2.90
2018-12-13T10:09:29.925Z,2.90
2018-12-13T10:11:56.195Z,3.00
2018-12-13T10:14:22.367Z,3.10
2018-12-13T10:16:49.486Z,2.70
2018-12-13T10:19:15.630Z,2.70
2018-12-13T10:21:41.930Z,2.40
2018-12-13T10:24:08.160Z,2.50
2018-12-13T10:26:34.381Z,2.70
2018-12-13T10:29:00.734Z,2.90
2018-12-13T10:31:26.989Z,2.90
2018-12-13T10:33:53.203Z,2.80
2018-12-13T10:36:19.423Z,2.80
2018-12-13T10:38:45.631Z,3.00
2018-12-13T10:41:11.901Z,3.00
2018-12-13T10:43:38.117Z,3.10
2018-12-13T10:46:04.353Z,3.10
2018-12-13T10:48:30.476Z,3.20
2018-12-13T10:50:56.737Z,3.00
2018-12-13T10:53:22.899Z,3.00
2018-12-13T10:55:49.199Z,3.10
2018-12-13T10:58:15.561Z,3.30
2018-12-13T11:00:47.902Z,3.50
2018-12-13T11:03:22.055Z,3.20
2018-12-13T11:05:48.377Z,3.40
2018-12-13T11:08:14.753Z,3.60
2018-12-13T11:10:40.870Z,3.70
2018-12-13T11:13:07.117Z,3.90
2018-12-13T11:15:33.267Z,3.80
2018-12-13T11:17:59.488Z,3.80
2018-12-13T11:20:25.824Z,3.80
2018-12-13T11:22:52.064Z,3.80
2018-12-13T11:25:18.292Z,3.80
2018-12-13T11:30:55.245Z,4.00
2018-12-13T11:33:21.370Z,3.80
2018-12-13T11:35:47.609Z,3.60
2018-12-13T11:38:13.947Z,3.50
2018-12-13T11:40:40.205Z,3.60
2018-12-13T11:43:06.409Z,3.90
2018-12-13T11:45:32.735Z,3.90
2018-12-13T11:47:59.976Z,3.90
2018-12-13T11:50:26.515Z,4.10
2018-12-13T11:52:52.758Z,4.40
2018-12-13T11:55:29.122Z,4.80
2018-12-13T11:57:55.496Z,5.00
2018-12-13T12:00:21.617Z,5.00
2018-12-13T12:02:48.012Z,4.90
2018-12-13T12:05:14.170Z,4.90
2018-12-13T12:07:40.307Z,4.90
2018-12-13T12:10:06.679Z,4.60
2018-12-13T12:12:33.040Z,4.50
2018-12-13T12:14:59.328Z,4.30
2018-12-13T12:17:25.555Z,4.40
2018-12-13T12:19:51.692Z,4.40
2018-12-13T12:22:17.985Z,4.50
2018-12-13T12:24:44.211Z,4.40
2018-12-13T12:27:10.430Z,4.10
2018-12-13T12:29:36.634Z,4.20
2018-12-13T12:32:03.647Z,4.10
2018-12-13T12:34:36.982Z,4.30
2018-12-13T12:37:03.341Z,4.40
2018-12-13T12:39:29.472Z,4.80
2018-12-13T12:41:55.701Z,4.80
2018-12-13T12:50:17.604Z,5.00
2018-12-13T12:52:43.829Z,4.70
2018-12-13T12:55:10.137Z,4.80
2018-12-13T12:57:36.324Z,4.50
2018-12-13T13:11:52.831Z,3.70
2018-12-13T13:14:19.086Z,3.30
2018-12-13T13:16:46.027Z,3.50
2018-12-13T13:19:12.433Z,3.70
2018-12-13T13:21:38.675Z,3.80
2018-12-13T13:24:04.808Z,3.80
2018-12-13T13:26:31.046Z,3.60
2018-12-13T13:28:57.209Z,3.60
2018-12-13T13:31:23.306Z,3.60
2018-12-13T13:33:49.559Z,3.70
2018-12-13T13:36:15.758Z,3.70
2018-12-13T13:38:42.578Z,3.70
2018-12-13T13:41:08.662Z,3.40
2018-12-13T13:43:34.969Z,3.60
2018-12-13T13:46:01.086Z,3.50
2018-12-13T13:48:27.289Z,3.30
2018-12-13T13:50:53.494Z,3.30
2018-12-13T13:53:19.596Z,3.50
2018-12-13T13:55:46.101Z,3.50
2018-12-13T13:58:12.387Z,3.50
2018-12-13T14:00:38.932Z,3.60
2018-12-13T14:03:05.207Z,3.40
2018-12-13T14:05:31.445Z,3.40
2018-12-13T14:07:57.696Z,3.60
2018-12-13T14:10:24.101Z,3.50
2018-12-13T14:12:50.217Z,3.20
2018-12-13T14:15:16.683Z,3.30
2018-12-13T14:17:43.054Z,3.30
2018-12-13T14:20:09.441Z,3.40
2018-12-13T14:22:35.675Z,3.40
2018-12-13T14:25:02.194Z,3.40
2018-12-13T14:27:29.547Z,3.40
2018-12-13T14:29:55.819Z,3.40
2018-12-13T14:32:21.954Z,3.40
2018-12-13T14:34:48.177Z,3.30
2018-12-13T14:37:14.281Z,2.90
2018-12-13T14:39:44.450Z,2.90
2018-12-13T14:42:08.885Z,3.10
2018-12-13T14:44:35.249Z,3.10
2018-12-13T14:47:01.478Z,3.10
2018-12-13T14:49:35.550Z,3.20
2018-12-13T14:52:01.924Z,3.30
2018-12-13T14:54:28.357Z,3.20
2018-12-13T14:56:54.756Z,3.20
2018-12-13T14:59:20.850Z,3.20
2018-12-13T15:01:47.424Z,3.10
2018-12-13T15:04:13.718Z,3.20
2018-12-13T15:06:40.026Z,3.20
2018-12-13T15:09:06.302Z,3.30
2018-12-13T15:11:32.813Z,3.30
2018-12-13T15:13:59.585Z,3.30
2018-12-13T15:16:26.003Z,3.20
2018-12-13T15:18:52.987Z,3.20
2018-12-13T15:21:20.246Z,3.20
2018-12-13T15:23:46.537Z,3.20
2018-12-13T15:26:17.475Z,3.30
2018-12-13T15:28:44.788Z,3.20
2018-12-13T15:31:14.488Z,3.20
2018-12-13T15:33:40.649Z,3.30
2018-12-13T15:36:08.075Z,3.30
2018-12-13T15:38:35.712Z,3.30
2018-12-13T15:41:02.806Z,3.40
2018-12-13T15:43:29.854Z,3.40
2018-12-13T15:45:55.984Z,3.40
2018-12-13T15:48:22.242Z,3.40
2018-12-13T15:50:49.464Z,3.40
2018-12-13T15:53:16.818Z,3.30
2018-12-13T15:55:43.020Z,3.40
2018-12-13T15:58:09.234Z,3.40
2018-12-13T16:00:35.495Z,3.50
2018-12-13T16:03:01.658Z,3.30
2018-12-13T16:05:27.891Z,3.30
2018-12-13T16:07:54.161Z,3.30
2018-12-13T16:10:20.286Z,3.20
2018-12-13T16:12:46.466Z,3.20
2018-12-13T16:15:14.199Z,3.30
2018-12-13T16:17:40.459Z,3.30
2018-12-13T16:20:06.934Z,3.40
2018-12-13T16:22:33.938Z,3.40
2018-12-13T16:25:00.116Z,3.30
2018-12-13T16:27:28.158Z,3.30
2018-12-13T16:29:54.691Z,3.40
2018-12-13T16:32:20.804Z,3.50
2018-12-13T16:34:47.240Z,3.50
2018-12-13T16:37:13.978Z,3.30
2018-12-13T16:39:41.064Z,3.40
2018-12-13T16:42:07.533Z,3.40
2018-12-13T16:44:33.740Z,3.30
2018-12-13T16:47:01.069Z,3.40
2018-12-13T16:49:27.201Z,3.40
2018-12-13T16:51:54.376Z,3.40
2018-12-13T16:54:20.563Z,3.20
2018-12-13T16:56:46.710Z,3.40
2018-12-13T16:59:13.661Z,3.40
2018-12-13T17:01:40.507Z,3.50
2018-12-13T17:04:09.824Z,3.60
2018-12-13T17:06:36.214Z,3.50
2018-12-13T17:09:06.127Z,3.50
2018-12-13T17:11:32.486Z,3.50
2018-12-13T17:13:58.684Z,3.50
2018-12-13T17:16:24.971Z,3.50
2018-12-13T17:18:51.151Z,3.30
2018-12-13T17:21:18.200Z,3.30
2018-12-13T17:23:44.375Z,3.30
2018-12-13T17:26:11.638Z,3.20
2018-12-13T17:28:38.785Z,3.20
2018-12-13T17:31:05.819Z,3.20
2018-12-13T17:33:32.783Z,3.20
2018-12-13T17:35:59.118Z,3.30
2018-12-13T17:38:26.295Z,3.00
2018-12-13T17:40:52.990Z,3.10
2018-12-13T17:43:20.606Z,3.10
2018-12-13T17:45:47.862Z,3.10
2018-12-13T17:48:15.025Z,3.00
2018-12-13T17:50:41.138Z,3.10
2018-12-13T17:53:08.217Z,3.10
2018-12-13T17:55:35.524Z,3.00
2018-12-13T17:58:01.753Z,3.00
2018-12-13T18:00:28.033Z,3.10
2018-12-13T18:02:54.305Z,3.20
2018-12-13T18:05:20.417Z,3.30
2018-12-13T18:07:46.727Z,3.30
2018-12-13T18:10:13.079Z,3.30
2018-12-13T18:12:39.665Z,3.30
2018-12-13T18:15:07.175Z,3.30
2018-12-13T18:17:33.657Z,3.30
2018-12-13T18:19:59.855Z,3.20
2018-12-13T18:22:26.210Z,3.20
2018-12-13T18:24:53.576Z,3.20
2018-12-13T18:27:19.786Z,3.20
2018-12-13T18:29:46.948Z,3.20
2018-12-13T18:32:13.210Z,3.30
2018-12-13T18:34:39.382Z,3.20
2018-12-13T18:37:05.767Z,3.20
2018-12-13T18:39:33.254Z,3.20
2018-12-13T18:42:00.321Z,3.30
2018-12-13T18:44:26.542Z,3.40
2018-12-13T18:46:52.725Z,3.30
2018-12-13T18:49:18.818Z,3.30
2018-12-13T18:51:45.715Z,3.30
2018-12-13T18:54:11.786Z,3.20
2018-12-13T18:56:38.657Z,3.30
2018-12-13T18:59:04.924Z,3.20
2018-12-13T19:01:38.712Z,3.30
2018-12-13T19:04:05.077Z,3.30
2018-12-13T19:06:31.316Z,3.30
2018-12-13T19:08:57.513Z,3.30
2018-12-13T19:11:23.860Z,3.30
2018-12-13T19:13:50.091Z,3.30
2018-12-13T19:16:16.418Z,3.30
2018-12-13T19:18:42.631Z,3.40
2018-12-13T19:21:08.735Z,3.30
2018-12-13T19:23:34.902Z,3.20
2018-12-13T19:26:01.215Z,3.20
2018-12-13T19:28:27.323Z,3.20
2018-12-13T19:30:53.467Z,3.10
2018-12-13T19:33:19.587Z,3.10
2018-12-13T19:35:45.876Z,3.10
2018-12-13T19:38:12.975Z,3.10
2018-12-13T19:40:39.236Z,3.20
2018-12-13T19:43:05.351Z,3.20
2018-12-13T19:45:32.017Z,3.20
2018-12-13T19:47:58.228Z,3.20
2018-12-13T19:50:24.401Z,3.20
2018-12-13T19:52:50.572Z,3.20
2018-12-13T19:55:16.717Z,3.10
2018-12-13T19:57:42.995Z,3.20
2018-12-13T20:00:09.374Z,3.10
2018-12-13T20:02:35.489Z,3.10
2018-12-13T20:05:02.064Z,3.00
2018-12-13T20:07:28.200Z,3.00
2018-12-13T20:09:54.389Z,3.10
2018-12-13T20:12:20.658Z,3.10
2018-12-13T20:17:26.178Z,3.10
2018-12-13T20:19:52.529Z,3.20
2018-12-13T20:22:18.820Z,3.10
2018-12-13T20:24:45.055Z,3.10
2018-12-13T20:27:11.331Z,3.00
2018-12-13T20:29:37.675Z,3.10
2018-12-13T20:32:04.186Z,3.10
2018-12-13T20:34:30.543Z,3.10
2018-12-13T20:36:56.979Z,3.00
2018-12-13T20:39:23.257Z,3.00
2018-12-13T20:41:49.744Z,3.00
2018-12-13T20:44:16.077Z,3.00
2018-12-13T20:46:42.471Z,3.10
2018-12-13T20:49:08.756Z,3.10
2018-12-13T20:51:35.113Z,3.10
2018-12-13T20:54:01.385Z,3.10
2018-12-13T20:56:27.735Z,3.10
2018-12-13T20:58:53.854Z,3.10
2018-12-13T21:01:19.982Z,2.90
2018-12-13T21:03:46.117Z,3.00
2018-12-13T21:06:12.474Z,3.10
2018-12-13T21:08:38.854Z,3.00
2018-12-13T21:11:07.573Z,3.00
2018-12-13T21:13:34.088Z,2.90
2018-12-13T21:16:00.409Z,3.00
2018-12-13T21:18:26.684Z,3.10
2018-12-13T21:20:52.974Z,3.10
2018-12-13T21:23:19.298Z,3.20
2018-12-13T21:25:45.478Z,3.10
2018-12-13T21:28:11.868Z,3.20
2018-12-13T21:30:38.009Z,3.00
2018-12-13T21:33:04.486Z,3.10
2018-12-13T21:35:30.880Z,3.10
2018-12-13T21:37:57.508Z,3.10
2018-12-13T21:40:23.701Z,3.20
2018-12-13T21:42:50.161Z,3.10
2018-12-13T21:45:17.445Z,2.90
2018-12-13T21:47:43.863Z,3.10
2018-12-13T21:50:10.490Z,3.10
2018-12-13T21:52:36.863Z,3.00
2018-12-13T21:55:03.725Z,2.80
2018-12-13T21:57:29.997Z,2.80
2018-12-13T21:59:57.685Z,2.80
2018-12-13T22:02:24.045Z,2.70
2018-12-13T22:04:50.196Z,2.80
2018-12-13T22:07:23.354Z,2.90
2018-12-13T22:09:49.647Z,3.00
2018-12-13T22:12:15.994Z,2.90
2018-12-13T22:14:42.098Z,2.90
2018-12-13T22:17:08.456Z,2.90
2018-12-13T22:19:34.594Z,3.00
2018-12-13T22:22:00.756Z,2.90
2018-12-13T22:24:26.903Z,2.90
2018-12-13T22:26:53.141Z,2.80
2018-12-13T22:29:19.985Z,2.70
2018-12-13T22:31:46.819Z,2.70
2018-12-13T22:34:13.587Z,2.70
2018-12-13T22:36:40.557Z,2.80
2018-12-13T22:39:06.896Z,2.80
2018-12-13T22:41:33.133Z,2.80
2018-12-13T22:44:06.239Z,2.90
2018-12-13T22:46:32.713Z,2.90
2018-12-13T22:48:58.879Z,2.90
2018-12-13T22:51:25.129Z,2.90
2018-12-13T22:53:51.486Z,2.80
2018-12-13T22:56:18.417Z,2.70
2018-12-13T22:58:44.745Z,2.80
2018-12-13T23:01:11.019Z,2.90
2018-12-13T23:03:37.647Z,2.80
2018-12-13T23:06:03.981Z,2.70
2018-12-13T23:08:30.213Z,2.70
2018-12-13T23:10:56.975Z,2.80
2018-12-13T23:13:23.254Z,2.70
2018-12-13T23:15:49.578Z,2.90
2018-12-13T23:18:15.689Z,2.80
2018-12-13T23:20:41.968Z,2.70
2018-12-13T23:23:08.292Z,2.80
2018-12-13T23:25:34.401Z,2.80
2018-12-13T23:28:00.672Z,2.80
2018-12-13T23:30:27.002Z,2.90
2018-12-13T23:32:53.280Z,2.90
2018-12-13T23:35:19.521Z,3.00
2018-12-13T23:37:45.701Z,2.80
2018-12-13T23:40:12.048Z,2.80
2018-12-13T23:42:38.149Z,2.80
2018-12-13T23:45:11.314Z,2.90
2018-12-13T23:47:37.554Z,2.80
2018-12-13T23:50:04.486Z,2.90
2018-12-13T23:55:10.058Z,2.90
2018-12-13T23:57:36.180Z,3.00
